Time;durP1;ratioP1;P1;durP2;ratioP2;P2;SDS_P1;SDS_P2;PMS_P1;PMS_P2;Temp;Humidity;BMP_temperature;BMP_pressure;BME280_temperature;BME280_humidity;BME280_pressure;Samples;Min_cycle;Max_cycle;Signal;HPM_P1;HPM_P2
2021/12/02 00:01:29;;;;;;;6.85;2.60;;;;;;;0.98;100.00;94368.53;20664114;28;20448;-73
2021/12/02 00:11:30;;;;;;;5.50;2.30;;;;;;;1.00;100.00;94362.03;20655933;28;20049;-73
2021/12/02 00:21:31;;;;;;;7.63;3.05;;;;;;;0.98;100.00;94369.34;20630414;28;20505;-73
2021/12/02 00:31:35;;;;;;;7.55;3.80;;;;;;;0.97;100.00;94373.00;20655908;28;21004;-73
2021/12/02 00:41:36;;;;;;;6.82;3.67;;;;;;;0.99;100.00;94386.53;20647743;28;21095;-73
2021/12/02 00:51:37;;;;;;;6.90;3.72;;;;;;;1.04;100.00;94374.50;20668064;28;20604;-73
2021/12/02 01:01:38;;;;;;;12.55;3.63;;;;;;;1.08;100.00;94376.28;20642021;28;20507;-73
2021/12/02 01:11:39;;;;;;;5.90;3.25;;;;;;;1.10;100.00;94381.25;20630696;28;20061;-73
2021/12/02 01:21:42;;;;;;;6.13;3.60;;;;;;;1.08;100.00;94376.28;20649111;28;20046;-74
2021/12/02 01:31:44;;;;;;;6.00;2.90;;;;;;;1.03;100.00;94376.34;20650959;28;20056;-73
2021/12/02 01:41:49;;;;;;;5.30;2.78;;;;;;;0.94;100.00;94365.72;20658581;28;20048;-74
2021/12/02 01:51:54;;;;;;;5.88;2.83;;;;;;;0.92;100.00;94377.44;20622656;28;20749;-73
2021/12/02 02:01:57;;;;;;;7.40;3.30;;;;;;;0.93;100.00;94392.06;20657486;28;20486;-72
2021/12/02 02:12:02;;;;;;;7.22;3.80;;;;;;;0.96;100.00;94378.47;20650946;28;20199;-73
2021/12/02 02:22:03;;;;;;;10.43;5.65;;;;;;;0.93;100.00;94374.59;20651325;28;20060;-73
2021/12/02 02:32:03;;;;;;;13.48;7.65;;;;;;;0.89;100.00;94381.38;20649691;28;20046;-73
2021/12/02 02:42:08;;;;;;;14.85;7.50;;;;;;;0.94;100.00;94380.56;20668935;28;20129;-73
2021/12/02 02:52:08;;;;;;;11.90;6.47;;;;;;;0.91;100.00;94378.53;20643751;28;20068;-73
2021/12/02 03:02:22;;;;;;;13.90;6.60;;;;;;;0.89;100.00;94380.63;20640323;28;20129;-73
2021/12/02 03:12:32;;;;;;;9.07;5.03;;;;;;;0.72;100.00;94375.78;20634539;28;20077;-73
2021/12/02 03:22:33;;;;;;;7.97;3.67;;;;;;;0.61;100.00;94388.06;20634261;28;22759;-73
2021/12/02 03:32:36;;;;;;;7.75;3.08;;;;;;;0.37;100.00;94387.94;20638309;28;20046;-72
2021/12/02 03:42:43;;;;;;;4.72;2.10;;;;;;;0.23;100.00;94381.78;20650414;28;20343;-73
2021/12/02 03:52:43;;;;;;;6.07;2.42;;;;;;;0.12;100.00;94379.19;20630891;28;22830;-73
2021/12/02 04:02:44;;;;;;;4.88;2.03;;;;;;;0.11;100.00;94375.03;20638356;28;20045;-73
2021/12/02 04:23:03;;;;;;;5.07;2.35;;;;;;;0.18;100.00;94372.94;20642930;28;20511;-73
2021/12/02 04:33:03;;;;;;;5.22;2.70;;;;;;;0.13;100.00;94378.16;20641305;28;20414;-73
2021/12/02 04:53:29;;;;;;;5.93;1.73;;;;;;;0.10;100.00;94394.31;20640996;28;20050;-73
2021/12/02 05:03:29;;;;;;;4.10;1.45;;;;;;;0.15;100.00;94391.69;20639899;28;20057;-73
2021/12/02 05:13:30;;;;;;;7.45;1.50;;;;;;;0.23;100.00;94395.56;20643915;28;21659;-73
2021/12/02 05:23:30;;;;;;;9.00;2.22;;;;;;;0.27;100.00;94403.63;20631541;28;20050;-72
2021/12/02 05:33:30;;;;;;;6.78;2.90;;;;;;;0.23;100.00;94408.56;20617656;28;20123;-72
2021/12/02 05:43:31;;;;;;;6.75;2.70;;;;;;;0.12;100.00;94405.25;20661286;28;20038;-73
2021/12/02 05:53:31;;;;;;;6.97;3.22;;;;;;;0.12;100.00;94394.03;20654865;28;20081;-73
2021/12/02 06:03:35;;;;;;;10.00;3.70;;;;;;;0.12;100.00;94404.44;20641296;28;20164;-73
2021/12/02 06:13:37;;;;;;;13.65;3.90;;;;;;;0.11;100.00;94401.06;20693388;28;20096;-73
2021/12/02 06:23:40;;;;;;;14.82;3.60;;;;;;;0.02;100.00;94400.06;20679262;28;20050;-73
2021/12/02 06:33:40;;;;;;;12.48;5.18;;;;;;;0.10;100.00;94404.72;20678817;28;20034;-73
2021/12/02 06:43:40;;;;;;;11.00;5.00;;;;;;;0.17;100.00;94420.81;20686460;28;20045;-73
2021/12/02 06:53:41;;;;;;;21.70;4.75;;;;;;;0.17;100.00;94425.25;20667310;28;20061;-75
2021/12/02 07:03:41;;;;;;;11.30;4.28;;;;;;;0.08;100.00;94439.84;20674921;28;20053;-75
2021/12/02 07:13:42;;;;;;;12.80;5.05;;;;;;;0.01;100.00;94434.94;20695584;28;20297;-75
2021/12/02 07:23:42;;;;;;;13.00;5.55;;;;;;;0.02;100.00;94441.72;20683717;28;20041;-75
2021/12/02 07:33:47;;;;;;;10.63;4.70;;;;;;;0.06;100.00;94460.16;20647598;28;20043;-75
2021/12/02 07:43:48;;;;;;;12.60;4.30;;;;;;;0.13;100.00;94465.88;20691052;28;20094;-79
2021/12/02 07:53:49;;;;;;;8.07;2.97;;;;;;;0.10;100.00;94485.41;20688295;28;20058;-78
2021/12/02 08:03:51;;;;;;;5.80;2.60;;;;;;;0.09;100.00;94490.88;20692334;28;20169;-77
2021/12/02 08:13:54;;;;;;;10.95;2.03;;;;;;;0.10;100.00;94503.66;20683506;28;20496;-75
2021/12/02 08:23:55;;;;;;;4.35;1.75;;;;;;;0.07;100.00;94501.56;20678947;28;20554;-77
2021/12/02 08:33:56;;;;;;;4.32;1.70;;;;;;;0.16;100.00;94517.41;20689219;28;20049;-77
2021/12/02 08:43:56;;;;;;;4.90;2.10;;;;;;;0.31;100.00;94530.41;20710880;28;20041;-79
2021/12/02 08:53:56;;;;;;;6.40;2.28;;;;;;;0.24;100.00;94532.50;20685877;28;20486;-79
2021/12/02 09:03:57;;;;;;;3.55;1.35;;;;;;;0.27;100.00;94546.84;20680339;28;20136;-76
2021/12/02 09:13:58;;;;;;;6.50;1.77;;;;;;;0.33;100.00;94551.00;20691032;28;20049;-76
2021/12/02 09:23:59;;;;;;;6.10;2.10;;;;;;;0.37;100.00;94565.03;20660783;28;20526;-77
2021/12/02 09:33:59;;;;;;;7.53;1.85;;;;;;;0.26;100.00;94568.69;20670412;28;20150;-78
2021/12/02 09:44:00;;;;;;;5.00;1.58;;;;;;;0.26;100.00;94582.47;20670588;28;20727;-77
2021/12/02 09:54:14;;;;;;;9.30;2.33;;;;;;;0.49;100.00;94596.78;20659356;28;20048;-78
2021/12/02 10:04:14;;;;;;;5.90;1.90;;;;;;;0.50;100.00;94600.19;20663876;28;20124;-76
2021/12/02 10:14:31;;;;;;;5.85;1.80;;;;;;;0.46;100.00;94599.91;20660841;28;20033;-76
2021/12/02 10:24:31;;;;;;;6.25;1.67;;;;;;;0.43;100.00;94604.84;20652548;28;20308;-77
2021/12/02 10:34:44;;;;;;;6.22;2.10;;;;;;;0.52;100.00;94604.06;20648634;28;20188;-79
2021/12/02 10:44:44;;;;;;;9.57;2.92;;;;;;;0.26;100.00;94616.34;20665045;28;20045;-77
2021/12/02 10:54:48;;;;;;;7.75;2.92;;;;;;;0.47;100.00;94606.69;20639920;28;20042;-76
2021/12/02 11:04:57;;;;;;;9.38;3.17;;;;;;;0.83;100.00;94614.44;20671989;28;20053;-78
2021/12/02 11:15:10;;;;;;;8.38;3.42;;;;;;;0.52;100.00;94621.53;20657148;28;20072;-80
2021/12/02 11:25:12;;;;;;;12.35;3.50;;;;;;;0.36;100.00;94631.19;20656420;28;20057;-79
2021/12/02 11:35:19;;;;;;;11.40;2.75;;;;;;;0.32;100.00;94636.13;20652107;28;20138;-77
2021/12/02 11:45:22;;;;;;;7.63;2.58;;;;;;;0.49;100.00;94650.69;20641345;28;20053;-78
2021/12/02 11:55:27;;;;;;;7.00;2.60;;;;;;;0.46;100.00;94643.41;20654269;28;20392;-77
2021/12/02 12:05:35;;;;;;;8.00;2.95;;;;;;;0.67;100.00;94644.94;20633523;28;20160;-76
2021/12/02 12:15:39;;;;;;;5.45;2.40;;;;;;;0.63;100.00;94645.75;20658655;28;20488;-78
2021/12/02 12:25:40;;;;;;;7.30;1.90;;;;;;;0.99;100.00;94655.03;20641166;28;20048;-78
2021/12/02 12:36:04;;;;;;;5.70;1.73;;;;;;;0.76;100.00;94666.06;20628545;28;20042;-77
2021/12/02 12:46:05;;;;;;;4.78;2.08;;;;;;;0.82;100.00;94691.06;20670350;28;20146;-79
2021/12/02 12:56:08;;;;;;;7.38;1.50;;;;;;;0.44;100.00;94682.75;20685385;28;20038;-77
2021/12/02 13:16:15;;;;;;;6.00;2.30;;;;;;;0.01;100.00;94673.63;20660433;28;20057;-76
2021/12/02 13:26:17;;;;;;;13.02;3.58;;;;;;;0.16;100.00;94690.03;20660642;28;20441;-77
2021/12/02 13:36:35;;;;;;;7.30;3.10;;;;;;;-0.06;100.00;94692.06;20656313;28;20543;-76
2021/12/02 13:46:46;;;;;;;9.05;3.75;;;;;;;-0.04;100.00;94714.22;20665447;28;20044;-76
2021/12/02 13:56:47;;;;;;;8.60;3.50;;;;;;;-0.06;100.00;94720.69;20641836;28;20608;-77
2021/12/02 14:06:48;;;;;;;14.13;3.70;;;;;;;-0.04;100.00;94736.81;20649363;28;20498;-76
2021/12/02 14:16:48;;;;;;;10.80;3.90;;;;;;;-0.11;100.00;94742.28;20643551;28;20053;-78
2021/12/02 14:26:48;;;;;;;14.32;4.53;;;;;;;-0.11;100.00;94767.53;20654271;28;20242;-78
2021/12/02 14:36:51;;;;;;;11.35;3.92;;;;;;;-0.18;100.00;94793.78;20650776;28;20260;-78
2021/12/02 14:46:57;;;;;;;9.80;3.60;;;;;;;-0.35;100.00;94806.19;20674396;28;20514;-78
2021/12/02 14:57:00;;;;;;;8.53;3.40;;;;;;;-0.34;100.00;94831.97;20635192;28;20049;-78
2021/12/02 15:07:12;;;;;;;8.43;3.90;;;;;;;-0.41;100.00;94836.59;20645064;28;20488;-77
2021/12/02 15:17:16;;;;;;;10.43;4.30;;;;;;;-0.43;100.00;94842.06;20636373;28;20054;-80
2021/12/02 15:27:16;;;;;;;9.85;4.38;;;;;;;-0.47;100.00;94850.59;20632301;28;20045;-78
2021/12/02 15:37:17;;;;;;;8.70;4.30;;;;;;;-0.54;100.00;94876.06;20634180;28;20046;-78
2021/12/02 15:47:17;;;;;;;11.98;4.82;;;;;;;-0.57;100.00;94894.75;20634433;28;20474;-78
2021/12/02 15:57:17;;;;;;;13.35;6.25;;;;;;;-0.59;100.00;94912.41;20660689;28;20765;-78
2021/12/02 16:07:25;;;;;;;10.77;5.25;;;;;;;-0.63;100.00;94920.72;20647755;28;20057;-77
2021/12/02 16:17:27;;;;;;;13.18;5.95;;;;;;;-0.62;100.00;94939.72;20651737;28;20402;-77
2021/12/02 16:27:28;;;;;;;9.40;5.88;;;;;;;-0.57;100.00;94963.16;20663008;28;20068;-77
2021/12/02 16:37:28;;;;;;;12.73;6.88;;;;;;;-0.68;100.00;94974.50;20658542;28;20058;-78
2021/12/02 16:47:29;;;;;;;12.82;6.95;;;;;;;-0.88;100.00;94981.09;20654646;28;21881;-78
2021/12/02 16:57:29;;;;;;;16.08;8.95;;;;;;;-1.11;100.00;94995.13;20657329;28;20036;-77
2021/12/02 17:07:29;;;;;;;18.75;9.13;;;;;;;-1.23;100.00;95017.84;20648272;28;20103;-78
2021/12/02 17:17:30;;;;;;;15.55;9.13;;;;;;;-1.40;100.00;95053.50;20646892;28;20124;-77
2021/12/02 17:27:30;;;;;;;15.05;7.88;;;;;;;-1.59;100.00;95058.97;20658425;28;20046;-78
2021/12/02 17:37:31;;;;;;;15.57;8.25;;;;;;;-1.72;100.00;95065.25;20641844;28;20050;-79
2021/12/02 17:47:32;;;;;;;18.13;9.40;;;;;;;-1.83;100.00;95072.13;20636291;28;20042;-77
2021/12/02 17:57:33;;;;;;;14.77;8.15;;;;;;;-1.94;100.00;95100.75;20649280;28;20041;-79
2021/12/02 18:07:34;;;;;;;17.23;8.43;;;;;;;-1.97;100.00;95109.78;20649425;28;20057;-77
2021/12/02 18:17:34;;;;;;;20.35;9.25;;;;;;;-1.92;100.00;95146.22;20663946;28;20396;-77
2021/12/02 18:27:35;;;;;;;22.70;9.27;;;;;;;-1.79;100.00;95181.44;20621198;28;20033;-75
2021/12/02 18:37:35;;;;;;;17.25;8.85;;;;;;;-1.64;100.00;95188.69;20634222;28;20046;-74
2021/12/02 18:47:36;;;;;;;12.23;6.45;;;;;;;-1.66;100.00;95212.28;20639533;28;20050;-75
2021/12/02 18:57:37;;;;;;;16.23;6.80;;;;;;;-1.88;100.00;95212.19;20642031;28;20061;-74
2021/12/02 19:07:54;;;;;;;16.52;7.00;;;;;;;-2.09;100.00;95231.78;20634180;28;20054;-75
2021/12/02 19:28:14;;;;;;;16.48;8.95;;;;;;;-1.84;100.00;95257.44;20627247;28;20089;-74
2021/12/02 19:38:14;;;;;;;19.90;8.93;;;;;;;-1.63;100.00;95268.16;20660866;28;20571;-75
2021/12/02 19:48:15;;;;;;;18.08;9.38;;;;;;;-1.87;100.00;95289.03;20667345;28;20414;-74
2021/12/02 19:58:15;;;;;;;22.95;9.07;;;;;;;-2.00;100.00;95296.28;20680155;28;20044;-76
2021/12/02 20:08:17;;;;;;;23.15;9.45;;;;;;;-1.86;100.00;95302.78;20642514;28;21068;-74
2021/12/02 20:18:20;;;;;;;19.77;10.07;;;;;;;-1.63;100.00;95310.50;20653098;28;20549;-75
2021/12/02 20:28:21;;;;;;;20.83;11.35;;;;;;;-1.68;100.00;95330.38;20683004;28;20085;-74
2021/12/02 20:38:22;;;;;;;30.40;12.77;;;;;;;-1.78;100.00;95337.97;20672806;28;20611;-74
2021/12/02 20:48:31;;;;;;;24.98;11.27;;;;;;;-1.90;100.00;95356.16;20673165;28;20469;-74
2021/12/02 20:58:31;;;;;;;21.98;10.63;;;;;;;-2.16;100.00;95378.22;20638784;28;20034;-74
2021/12/02 21:08:32;;;;;;;22.17;10.75;;;;;;;-2.29;100.00;95400.78;20658142;28;20485;-75
2021/12/02 21:18:35;;;;;;;27.25;11.90;;;;;;;-2.13;100.00;95398.50;20644695;28;20133;-74
2021/12/02 21:28:36;;;;;;;24.33;10.63;;;;;;;-2.29;100.00;95423.31;20654931;28;20593;-75
2021/12/02 21:38:39;;;;;;;25.05;12.90;;;;;;;-2.42;100.00;95408.78;20648231;28;20077;-75
2021/12/02 21:48:40;;;;;;;29.38;12.82;;;;;;;-2.45;100.00;95414.44;20652930;28;20515;-74
2021/12/02 21:58:40;;;;;;;25.83;12.80;;;;;;;-2.56;100.00;95435.94;20645783;28;20034;-75
2021/12/02 22:08:41;;;;;;;30.67;13.50;;;;;;;-2.65;100.00;95441.44;20652068;28;20049;-75
2021/12/02 22:18:41;;;;;;;29.48;14.52;;;;;;;-2.86;100.00;95457.50;20646928;28;20049;-74
2021/12/02 22:28:42;;;;;;;29.17;14.15;;;;;;;-2.79;100.00;95454.81;20647234;28;20513;-74
2021/12/02 22:38:42;;;;;;;28.52;14.07;;;;;;;-2.84;100.00;95471.81;20661178;28;20195;-75
2021/12/02 22:48:43;;;;;;;26.67;14.02;;;;;;;-2.55;100.00;95477.19;20652570;28;20566;-74
2021/12/02 22:58:44;;;;;;;28.80;14.50;;;;;;;-2.33;100.00;95474.88;20664643;28;20104;-75
2021/12/02 23:08:45;;;;;;;32.00;15.73;;;;;;;-2.10;100.00;95481.09;20640381;28;20057;-75
2021/12/02 23:18:45;;;;;;;28.80;13.77;;;;;;;-1.88;100.00;95483.88;20654704;28;20124;-74
2021/12/02 23:28:53;;;;;;;30.20;14.85;;;;;;;-1.83;100.00;95492.59;20660352;28;20317;-74
2021/12/02 23:38:54;;;;;;;35.42;16.45;;;;;;;-1.75;100.00;95507.03;20656704;28;20557;-75
2021/12/02 23:48:55;;;;;;;31.10;12.77;;;;;;;-1.52;100.00;95523.63;20653709;28;20132;-74
2021/12/02 23:58:55;;;;;;;31.48;14.55;;;;;;;-1.46;100.00;95514.91;20656827;28;20042;-75
